Time;durP1;ratioP1;P1;durP2;ratioP2;P2;SDS_P1;SDS_P2;PMS_P1;PMS_P2;Temp;Humidity;BMP_temperature;BMP_pressure;BME280_temperature;BME280_humidity;BME280_pressure;Samples;Min_cycle;Max_cycle;Signal;HPM_P1;HPM_P2
2021/12/31 00:01:33;;;;;;;0.50;0.40;;;;;;;8.84;76.39;99941.98;100915;1324;140364;-75
2021/12/31 00:04:01;;;;;;;0.40;0.40;;;;;;;8.87;76.24;99938.55;101041;1322;108791;-75
2021/12/31 00:06:29;;;;;;;0.40;0.40;;;;;;;8.87;76.65;99935.33;100989;1318;139916;-74
2021/12/31 00:08:56;;;;;;;0.40;0.40;;;;;;;8.87;76.46;99931.98;100916;1320;94809;-74
2021/12/31 00:11:24;;;;;;;0.40;0.40;;;;;;;8.86;76.50;99926.70;101114;1322;106864;-74
2021/12/31 00:13:52;;;;;;;0.40;0.40;;;;;;;8.91;76.72;99931.91;100905;1319;140573;-73
2021/12/31 00:16:19;;;;;;;0.40;0.40;;;;;;;8.95;76.79;99928.41;101049;1324;93363;-75
2021/12/31 00:18:47;;;;;;;0.40;0.40;;;;;;;8.99;76.61;99928.14;100846;1322;140207;-75
2021/12/31 00:21:15;;;;;;;0.40;0.40;;;;;;;8.96;76.67;99934.05;100982;1319;109731;-75
2021/12/31 00:23:45;;;;;;;0.40;0.40;;;;;;;8.97;76.54;99947.84;100850;1318;109027;-74
2021/12/31 00:26:12;;;;;;;0.40;0.40;;;;;;;9.01;76.37;99938.17;100713;1319;140959;-73
2021/12/31 00:28:40;;;;;;;0.40;0.40;;;;;;;9.02;76.11;99938.48;100899;1319;94868;-74
2021/12/31 00:31:08;;;;;;;0.40;0.40;;;;;;;9.03;76.24;99943.60;101219;1318;140151;-75
2021/12/31 00:33:35;;;;;;;0.40;0.40;;;;;;;9.06;76.11;99944.39;101462;1319;108573;-76
2021/12/31 00:36:03;;;;;;;0.40;0.40;;;;;;;9.08;75.93;99944.70;101394;1318;140702;-76
2021/12/31 00:38:31;;;;;;;0.40;0.40;;;;;;;9.04;76.32;99945.17;101525;1325;94273;-74
2021/12/31 00:40:58;;;;;;;0.50;0.40;;;;;;;9.04;76.20;99947.65;101632;1323;109414;-75
2021/12/31 00:43:26;;;;;;;0.40;0.40;;;;;;;9.10;76.04;99945.70;101484;1316;139962;-75
2021/12/31 00:45:54;;;;;;;0.40;0.40;;;;;;;9.13;75.78;99948.11;101802;1322;95164;-70
2021/12/31 00:48:21;;;;;;;0.40;0.30;;;;;;;9.13;75.92;99947.22;101733;1324;138314;-75
2021/12/31 00:50:49;;;;;;;0.40;0.40;;;;;;;9.17;75.71;99951.71;101815;1322;110244;-75
2021/12/31 00:53:17;;;;;;;0.40;0.30;;;;;;;9.15;75.72;99951.41;101813;1319;109635;-75
2021/12/31 00:55:45;;;;;;;0.40;0.30;;;;;;;9.15;75.67;99954.42;101685;1324;140194;-74
2021/12/31 00:58:13;;;;;;;0.40;0.30;;;;;;;9.07;75.63;99956.77;101812;1322;94307;-74
2021/12/31 01:00:40;;;;;;;0.40;0.40;;;;;;;9.00;76.16;99965.45;101633;1322;142786;-75
2021/12/31 01:03:08;;;;;;;0.40;0.40;;;;;;;9.00;75.99;99972.19;101828;1318;108909;-75
2021/12/31 01:05:36;;;;;;;0.40;0.40;;;;;;;8.99;75.86;99969.58;101889;1318;94173;-74
2021/12/31 01:08:04;;;;;;;0.40;0.40;;;;;;;8.97;76.24;99966.77;101631;1319;138640;-75
2021/12/31 01:10:32;;;;;;;0.40;0.40;;;;;;;8.99;76.02;99962.10;101777;1322;108297;-75
2021/12/31 01:13:01;;;;;;;0.40;0.40;;;;;;;9.05;75.89;99954.89;101678;1317;141669;-75
2021/12/31 01:15:45;;;;;;;0.40;0.40;;;;;;;9.04;75.50;99952.95;101837;1322;94285;-75
2021/12/31 01:18:19;;;;;;;0.40;0.40;;;;;;;9.01;75.79;99962.07;101855;1318;141306;-76
2021/12/31 01:20:47;;;;;;;0.40;0.30;;;;;;;8.98;75.86;99958.09;101725;1322;108575;-75
2021/12/31 01:23:16;;;;;;;0.40;0.40;;;;;;;9.00;75.48;99945.47;101319;1318;108796;-75
2021/12/31 01:25:45;;;;;;;0.40;0.40;;;;;;;9.04;75.66;99950.65;100752;1318;142140;-75
2021/12/31 01:28:13;;;;;;;0.40;0.40;;;;;;;9.06;75.41;99956.10;100893;1313;94858;-75
2021/12/31 01:30:41;;;;;;;0.40;0.40;;;;;;;9.07;75.30;99947.75;100882;1317;139158;-75
2021/12/31 01:33:09;;;;;;;0.40;0.40;;;;;;;9.09;75.04;99948.42;100676;1316;108876;-75
2021/12/31 01:35:37;;;;;;;0.40;0.40;;;;;;;9.09;74.94;99942.37;100647;1318;94744;-74
2021/12/31 01:38:04;;;;;;;0.40;0.30;;;;;;;9.16;74.98;99945.73;100543;1318;139004;-75
2021/12/31 01:40:32;;;;;;;0.40;0.40;;;;;;;9.12;74.71;99947.43;100657;1322;108779;-75
2021/12/31 01:43:00;;;;;;;0.50;0.40;;;;;;;9.09;75.12;99953.54;100521;1318;140841;-75
2021/12/31 01:45:32;;;;;;;0.50;0.50;;;;;;;9.04;74.96;99962.52;100640;1318;94283;-75
2021/12/31 01:48:21;;;;;;;0.40;0.40;;;;;;;8.97;75.14;99965.71;100568;1319;140719;-75
2021/12/31 01:50:52;;;;;;;0.40;0.40;;;;;;;8.92;75.43;99962.14;100618;1318;109153;-74
2021/12/31 01:53:25;;;;;;;0.50;0.40;;;;;;;8.87;75.65;99950.21;100601;1319;108704;-74
2021/12/31 01:55:59;;;;;;;0.50;0.40;;;;;;;8.92;75.81;99953.29;100460;1318;138892;-75
2021/12/31 01:58:27;;;;;;;0.40;0.40;;;;;;;8.97;75.33;99956.16;100498;1319;94301;-74
2021/12/31 02:00:55;;;;;;;0.50;0.40;;;;;;;8.97;75.34;99958.80;100459;1319;140447;-77
2021/12/31 02:03:24;;;;;;;0.40;0.40;;;;;;;9.00;75.59;99965.47;100684;1319;109388;-77
2021/12/31 02:05:52;;;;;;;0.40;0.40;;;;;;;9.08;75.44;99964.36;100659;1318;94301;-77
2021/12/31 02:08:19;;;;;;;0.50;0.40;;;;;;;9.10;75.15;99964.33;100376;1318;139612;-76
2021/12/31 02:10:51;;;;;;;0.50;0.40;;;;;;;9.00;75.15;99964.76;100509;1319;108374;-77
2021/12/31 02:13:20;;;;;;;0.50;0.40;;;;;;;9.01;75.67;99965.98;100470;1319;140322;-77
2021/12/31 02:15:49;;;;;;;0.40;0.40;;;;;;;8.99;75.57;99971.16;100735;1319;94736;-77
2021/12/31 02:18:17;;;;;;;0.50;0.40;;;;;;;8.93;75.50;99968.29;100727;1318;139907;-77
2021/12/31 02:20:46;;;;;;;0.50;0.40;;;;;;;8.93;75.74;99957.33;101000;1319;107851;-77
2021/12/31 02:23:23;;;;;;;0.40;0.40;;;;;;;8.93;75.75;99955.71;100994;1318;108665;-77
2021/12/31 02:25:52;;;;;;;0.40;0.40;;;;;;;8.95;75.95;99955.17;101136;1315;139694;-77
2021/12/31 02:28:19;;;;;;;0.50;0.50;;;;;;;8.96;76.11;99966.28;101066;1319;94312;-77
2021/12/31 02:30:47;;;;;;;0.40;0.40;;;;;;;9.00;76.02;99972.36;101049;1316;139980;-77
2021/12/31 02:33:15;;;;;;;0.40;0.40;;;;;;;9.08;75.91;99971.45;101072;1318;108568;-77
2021/12/31 02:35:43;;;;;;;0.50;0.40;;;;;;;9.06;75.79;99962.98;101152;1318;94224;-77
2021/12/31 02:38:11;;;;;;;0.40;0.40;;;;;;;9.07;75.92;99970.59;101071;1319;140255;-78
2021/12/31 02:40:39;;;;;;;0.40;0.30;;;;;;;9.09;76.09;99969.48;101203;1318;109240;-78
2021/12/31 02:43:07;;;;;;;0.50;0.40;;;;;;;9.10;76.06;99964.85;101114;1318;140288;-78
2021/12/31 02:45:37;;;;;;;0.40;0.30;;;;;;;9.13;76.27;99959.79;101207;1322;94689;-78
2021/12/31 02:48:06;;;;;;;0.40;0.40;;;;;;;9.18;76.20;99958.59;101254;1318;143191;-79
2021/12/31 02:50:40;;;;;;;0.40;0.40;;;;;;;9.24;76.02;99964.64;101219;1319;108492;-78
2021/12/31 02:53:13;;;;;;;0.50;0.40;;;;;;;9.25;75.97;99977.73;101230;1320;107998;-77
2021/12/31 02:55:42;;;;;;;0.50;0.40;;;;;;;9.31;75.83;99976.48;101003;1319;139466;-77
2021/12/31 02:58:11;;;;;;;0.40;0.40;;;;;;;9.35;75.87;99975.48;101081;1322;94682;-77
2021/12/31 03:00:41;;;;;;;0.40;0.40;;;;;;;9.42;75.54;99975.98;100783;1319;140847;-78
2021/12/31 03:03:09;;;;;;;0.40;0.40;;;;;;;9.39;75.70;99977.14;100822;1317;108976;-78
2021/12/31 03:05:38;;;;;;;0.50;0.40;;;;;;;9.41;75.67;99972.16;100743;1319;94235;-78
2021/12/31 03:08:10;;;;;;;0.40;0.40;;;;;;;9.47;75.44;99968.59;100833;1319;140736;-78
2021/12/31 03:10:38;;;;;;;0.40;0.40;;;;;;;9.46;75.36;99970.58;100900;1318;109560;-78
2021/12/31 03:13:07;;;;;;;0.40;0.40;;;;;;;9.47;75.49;99978.15;100889;1318;142178;-78
2021/12/31 03:15:36;;;;;;;0.40;0.30;;;;;;;9.44;75.66;99976.66;100922;1318;94298;-78
2021/12/31 03:18:06;;;;;;;0.40;0.30;;;;;;;9.46;75.56;99972.70;100996;1319;141841;-78
2021/12/31 03:20:38;;;;;;;0.40;0.30;;;;;;;9.46;75.50;99976.08;101103;1319;109832;-78
2021/12/31 03:23:06;;;;;;;0.40;0.40;;;;;;;9.47;75.65;99986.50;101097;1318;107936;-77
2021/12/31 03:25:34;;;;;;;0.50;0.40;;;;;;;9.45;75.48;99980.52;100932;1319;140389;-77
2021/12/31 03:28:03;;;;;;;0.40;0.30;;;;;;;9.38;75.76;99973.10;101151;1319;94797;-77
2021/12/31 03:30:31;;;;;;;0.40;0.30;;;;;;;9.38;76.13;99974.35;100980;1322;141401;-78
2021/12/31 03:32:58;;;;;;;0.40;0.30;;;;;;;9.40;75.95;99972.89;101191;1319;108761;-77
2021/12/31 03:35:26;;;;;;;0.40;0.40;;;;;;;9.45;76.07;99976.63;101109;1318;94590;-78
2021/12/31 03:37:55;;;;;;;0.40;0.30;;;;;;;9.47;75.94;99982.77;101044;1319;139300;-78
2021/12/31 03:40:23;;;;;;;0.40;0.40;;;;;;;9.43;75.77;99977.58;101100;1319;109325;-78
2021/12/31 03:42:51;;;;;;;0.40;0.40;;;;;;;9.43;76.17;99976.69;100991;1319;143075;-78
2021/12/31 03:45:18;;;;;;;0.40;0.30;;;;;;;9.43;75.91;99974.55;101136;1318;94397;-78
2021/12/31 03:47:46;;;;;;;0.40;0.30;;;;;;;9.45;76.26;99974.14;101146;1318;94337;-78
2021/12/31 03:50:14;;;;;;;0.40;0.40;;;;;;;9.49;75.93;99965.33;100981;1318;140148;-78
2021/12/31 03:52:42;;;;;;;0.40;0.30;;;;;;;9.49;75.79;99965.52;101188;1317;106045;-78
2021/12/31 03:55:11;;;;;;;0.40;0.30;;;;;;;9.47;76.08;99966.64;101071;1318;141607;-77
2021/12/31 03:57:38;;;;;;;0.40;0.30;;;;;;;9.42;76.47;99964.31;101139;1317;94190;-78
2021/12/31 04:00:08;;;;;;;0.40;0.40;;;;;;;9.42;76.83;99968.20;100958;1318;139978;-78
2021/12/31 04:02:36;;;;;;;0.40;0.30;;;;;;;9.47;76.47;99967.17;101398;1313;107987;-78
2021/12/31 04:05:04;;;;;;;0.40;0.30;;;;;;;9.51;76.43;99974.88;101444;1312;94828;-78
2021/12/31 04:07:32;;;;;;;0.40;0.30;;;;;;;9.53;76.53;99975.66;101311;1316;140277;-78
2021/12/31 04:10:00;;;;;;;0.40;0.30;;;;;;;9.60;76.29;99971.06;101432;1313;110123;-77
2021/12/31 04:12:28;;;;;;;0.40;0.30;;;;;;;9.61;76.48;99975.11;101322;1313;140228;-77
2021/12/31 04:14:55;;;;;;;0.40;0.30;;;;;;;9.65;76.20;99979.92;101493;1312;94263;-77
2021/12/31 04:17:23;;;;;;;0.40;0.30;;;;;;;9.64;76.52;99976.06;101431;1313;94239;-77
2021/12/31 04:19:55;;;;;;;0.40;0.30;;;;;;;9.68;76.34;99974.73;101317;1313;140134;-78
2021/12/31 04:22:25;;;;;;;0.40;0.30;;;;;;;9.67;76.49;99972.42;101466;1312;107833;-77
2021/12/31 04:24:53;;;;;;;0.40;0.40;;;;;;;9.71;76.52;99979.77;101310;1312;142423;-78
2021/12/31 04:27:22;;;;;;;0.40;0.30;;;;;;;9.73;76.68;99985.23;101476;1312;94384;-78
2021/12/31 04:29:51;;;;;;;0.40;0.30;;;;;;;9.72;76.67;99987.36;101478;1312;108184;-77
2021/12/31 04:32:21;;;;;;;0.40;0.30;;;;;;;9.72;76.93;99984.89;101367;1312;139744;-78
2021/12/31 04:34:50;;;;;;;0.40;0.40;;;;;;;9.70;76.94;99984.22;101369;1315;94170;-78
2021/12/31 04:37:18;;;;;;;0.40;0.30;;;;;;;9.75;77.15;99975.23;101254;1315;139008;-78
2021/12/31 04:39:45;;;;;;;0.40;0.30;;;;;;;9.79;76.99;99972.96;101238;1312;109335;-78
2021/12/31 04:42:13;;;;;;;0.40;0.30;;;;;;;9.82;77.01;99971.83;101196;1312;139676;-77
2021/12/31 04:44:41;;;;;;;0.40;0.40;;;;;;;9.87;77.30;99978.59;101360;1312;94320;-78
2021/12/31 04:47:08;;;;;;;0.40;0.30;;;;;;;9.90;77.06;99981.35;101411;1313;94306;-77
2021/12/31 04:49:36;;;;;;;0.40;0.30;;;;;;;9.91;76.94;99987.34;101299;1312;140310;-78
2021/12/31 04:52:04;;;;;;;0.40;0.30;;;;;;;9.90;77.03;99993.95;101443;1316;108967;-78
2021/12/31 04:54:32;;;;;;;0.40;0.30;;;;;;;9.88;77.41;99988.30;101321;1312;139479;-77
2021/12/31 04:57:00;;;;;;;0.40;0.30;;;;;;;9.86;77.63;99996.35;101416;1312;94620;-77
2021/12/31 04:59:27;;;;;;;0.40;0.30;;;;;;;9.85;77.70;99996.72;101396;1313;109661;-77
2021/12/31 05:01:55;;;;;;;0.40;0.40;;;;;;;9.87;77.82;99993.84;101277;1313;140366;-77
2021/12/31 05:04:23;;;;;;;0.40;0.30;;;;;;;9.93;77.66;99985.85;101474;1313;94268;-77
2021/12/31 05:06:51;;;;;;;0.40;0.30;;;;;;;9.97;77.89;99982.17;101350;1312;139745;-77
2021/12/31 05:09:19;;;;;;;0.40;0.30;;;;;;;10.05;77.63;99977.87;101372;1313;109351;-77
2021/12/31 05:11:47;;;;;;;0.40;0.30;;;;;;;10.10;77.39;99980.55;101360;1312;108799;-77
2021/12/31 05:14:14;;;;;;;0.40;0.40;;;;;;;10.13;77.11;99972.48;101320;1310;140534;-78
2021/12/31 05:16:42;;;;;;;0.40;0.30;;;;;;;10.14;77.34;99974.77;101469;1312;94593;-78
2021/12/31 05:19:10;;;;;;;0.40;0.30;;;;;;;10.20;77.25;99973.84;101294;1312;140682;-77
2021/12/31 05:21:37;;;;;;;0.40;0.30;;;;;;;10.27;76.96;99974.71;101361;1312;107793;-77
2021/12/31 05:24:05;;;;;;;0.40;0.30;;;;;;;10.21;77.07;99971.52;101250;1313;140586;-77
2021/12/31 05:26:33;;;;;;;0.40;0.30;;;;;;;10.16;77.65;99973.25;101329;1315;94246;-77
2021/12/31 05:29:02;;;;;;;0.40;0.30;;;;;;;10.21;77.48;99969.22;101268;1315;109281;-78
2021/12/31 05:31:29;;;;;;;0.40;0.30;;;;;;;10.21;77.42;99968.30;101385;1315;141226;-77
2021/12/31 05:33:57;;;;;;;0.40;0.30;;;;;;;10.23;77.51;99965.95;101330;1316;94325;-77
2021/12/31 05:36:25;;;;;;;0.40;0.40;;;;;;;10.25;77.50;99966.42;101236;1315;143455;-77
2021/12/31 05:38:53;;;;;;;0.40;0.30;;;;;;;10.26;77.39;99964.44;101285;1315;110025;-77
2021/12/31 05:41:20;;;;;;;0.40;0.30;;;;;;;10.31;77.59;99970.50;101270;1310;109096;-78
2021/12/31 05:43:48;;;;;;;0.40;0.30;;;;;;;10.34;77.43;99970.92;101199;1315;140758;-77
2021/12/31 05:46:16;;;;;;;0.40;0.30;;;;;;;10.32;77.53;99971.53;101380;1311;95272;-78
2021/12/31 05:48:44;;;;;;;0.40;0.30;;;;;;;10.34;77.40;99970.92;101285;1310;140665;-78
2021/12/31 05:51:12;;;;;;;0.40;0.30;;;;;;;10.31;77.69;99970.31;101381;1312;108866;-78
2021/12/31 05:53:40;;;;;;;0.40;0.30;;;;;;;10.34;77.85;99973.95;101348;1313;94299;-77
2021/12/31 05:56:07;;;;;;;0.40;0.30;;;;;;;10.36;77.53;99966.63;101326;1315;139732;-77
2021/12/31 05:58:35;;;;;;;0.40;0.30;;;;;;;10.39;77.62;99967.42;101202;1315;109342;-78
2021/12/31 06:01:03;;;;;;;0.40;0.30;;;;;;;10.38;77.67;99971.36;101281;1311;140310;-77
2021/12/31 06:03:31;;;;;;;0.40;0.30;;;;;;;10.40;77.59;99974.50;101284;1315;94563;-77
2021/12/31 06:05:58;;;;;;;0.40;0.30;;;;;;;10.37;77.75;99970.50;101207;1315;141468;-77
2021/12/31 06:08:26;;;;;;;0.40;0.30;;;;;;;10.38;77.65;99973.48;101047;1315;108827;-77
2021/12/31 06:10:54;;;;;;;0.40;0.30;;;;;;;10.40;77.67;99969.88;101211;1313;107637;-77
2021/12/31 06:13:21;;;;;;;0.40;0.30;;;;;;;10.45;77.39;99966.01;101343;1315;139142;-77
2021/12/31 06:15:55;;;;;;;0.40;0.30;;;;;;;10.40;77.48;99971.67;101243;1315;94847;-78
2021/12/31 06:18:25;;;;;;;0.40;0.30;;;;;;;10.39;77.51;99972.92;101107;1303;139148;-77
2021/12/31 06:20:53;;;;;;;0.40;0.30;;;;;;;10.39;77.53;99972.58;101306;1316;109055;-77
2021/12/31 06:23:21;;;;;;;0.40;0.30;;;;;;;10.43;77.62;99975.83;101023;1318;94208;-77
2021/12/31 06:25:48;;;;;;;0.40;0.30;;;;;;;10.47;77.15;99977.99;101312;1315;140284;-78
2021/12/31 06:28:16;;;;;;;0.40;0.30;;;;;;;10.47;77.06;99976.92;101238;1316;109546;-78
2021/12/31 06:30:44;;;;;;;0.40;0.30;;;;;;;10.47;77.18;99979.42;100421;1315;140356;-78
2021/12/31 06:33:12;;;;;;;0.40;0.30;;;;;;;10.48;77.17;99982.76;100623;1315;94290;-78
2021/12/31 06:35:39;;;;;;;0.40;0.30;;;;;;;10.48;77.19;99988.61;101318;1315;94373;-77
2021/12/31 06:38:07;;;;;;;0.40;0.30;;;;;;;10.49;77.04;99988.40;101352;1315;141363;-77
2021/12/31 06:40:36;;;;;;;0.40;0.30;;;;;;;10.54;77.02;99988.06;101323;1313;109056;-78
2021/12/31 06:43:03;;;;;;;0.40;0.30;;;;;;;10.58;76.86;99985.10;101230;1315;138995;-77
2021/12/31 06:45:31;;;;;;;0.40;0.30;;;;;;;10.64;76.70;99988.77;101438;1315;94686;-78
2021/12/31 06:47:59;;;;;;;0.40;0.30;;;;;;;10.65;76.51;99990.36;101488;1315;139129;-78
2021/12/31 06:50:30;;;;;;;0.40;0.30;;;;;;;10.66;76.41;99992.29;101347;1315;107333;-78
2021/12/31 06:52:57;;;;;;;0.40;0.30;;;;;;;10.69;76.48;99991.29;101447;1313;94424;-77
2021/12/31 06:55:25;;;;;;;0.40;0.30;;;;;;;10.72;76.05;99991.91;101419;1315;140026;-78
2021/12/31 06:57:53;;;;;;;0.40;0.20;;;;;;;10.70;76.11;99990.73;101451;1315;108168;-77
2021/12/31 07:00:21;;;;;;;0.40;0.30;;;;;;;10.69;76.09;99988.27;101321;1315;140430;-77
2021/12/31 07:02:48;;;;;;;0.40;0.30;;;;;;;10.72;76.26;99987.65;101370;1315;94901;-78
2021/12/31 07:05:17;;;;;;;0.40;0.30;;;;;;;10.71;76.19;99987.85;101464;1315;94072;-78
2021/12/31 07:07:45;;;;;;;0.40;0.30;;;;;;;10.72;76.33;99985.52;101412;1315;139779;-78
2021/12/31 07:10:14;;;;;;;0.40;0.20;;;;;;;10.73;76.27;99986.90;101389;1315;107646;-78
2021/12/31 07:12:41;;;;;;;0.40;0.30;;;;;;;10.75;76.16;99984.55;101372;1315;141370;-78
2021/12/31 07:15:09;;;;;;;0.40;0.30;;;;;;;10.79;76.17;99989.55;101433;1315;94282;-78
2021/12/31 07:17:36;;;;;;;0.40;0.30;;;;;;;10.78;76.09;99989.73;101253;1318;107906;-78
2021/12/31 07:20:06;;;;;;;0.40;0.30;;;;;;;10.90;76.34;99992.90;101316;1316;141065;-79
2021/12/31 07:22:34;;;;;;;0.40;0.20;;;;;;;11.02;76.01;99991.95;101362;1315;94381;-78
2021/12/31 07:25:02;;;;;;;0.40;0.20;;;;;;;11.09;75.70;99994.36;101173;1315;139282;-78
2021/12/31 07:27:32;;;;;;;0.40;0.30;;;;;;;11.14;75.59;99995.78;101217;1315;109584;-78
2021/12/31 07:29:59;;;;;;;0.40;0.30;;;;;;;11.10;75.50;99994.89;101100;1315;140192;-78
2021/12/31 07:32:27;;;;;;;0.40;0.30;;;;;;;11.02;75.93;99996.55;101365;1315;94613;-78
2021/12/31 07:34:55;;;;;;;0.40;0.30;;;;;;;11.09;76.08;99998.13;101560;1315;94361;-78
2021/12/31 07:37:22;;;;;;;0.40;0.30;;;;;;;11.10;76.04;100000.75;101248;1315;140067;-78
2021/12/31 07:39:58;;;;;;;0.40;0.30;;;;;;;11.17;76.08;99998.03;101443;1316;108797;-78
2021/12/31 07:42:26;;;;;;;0.40;0.30;;;;;;;11.23;75.95;99998.88;101229;1318;139812;-78
2021/12/31 07:44:54;;;;;;;0.40;0.30;;;;;;;11.26;75.84;100004.27;101472;1315;94880;-78
2021/12/31 07:47:21;;;;;;;0.40;0.30;;;;;;;11.23;75.60;100000.12;101989;1315;110472;-78
2021/12/31 07:49:49;;;;;;;0.40;0.20;;;;;;;11.14;76.11;100000.42;101258;1315;138813;-78
2021/12/31 07:52:17;;;;;;;0.40;0.20;;;;;;;11.14;76.39;99997.41;101399;1310;94516;-77
2021/12/31 07:54:47;;;;;;;0.40;0.30;;;;;;;11.20;76.04;99996.48;101204;1315;140247;-77
2021/12/31 07:57:15;;;;;;;0.40;0.20;;;;;;;11.20;76.27;99999.66;101488;1315;107805;-77
2021/12/31 07:59:43;;;;;;;0.40;0.30;;;;;;;11.27;76.33;99999.25;100990;1315;109006;-77
2021/12/31 08:02:12;;;;;;;0.40;0.30;;;;;;;11.29;76.03;99997.59;100922;1315;140352;-77
2021/12/31 08:04:41;;;;;;;0.40;0.30;;;;;;;11.27;76.05;99994.46;101307;1315;94180;-77
2021/12/31 08:07:09;;;;;;;0.40;0.30;;;;;;;11.28;76.46;99992.66;101064;1316;140202;-77
2021/12/31 08:09:36;;;;;;;0.40;0.30;;;;;;;11.30;76.39;99992.23;101284;1315;107434;-78
2021/12/31 08:12:05;;;;;;;0.40;0.30;;;;;;;11.28;76.34;99992.27;101287;1315;139079;-78
2021/12/31 08:14:33;;;;;;;0.40;0.30;;;;;;;11.28;76.40;99991.94;101335;1314;94211;-77
2021/12/31 08:17:01;;;;;;;0.40;0.30;;;;;;;11.35;76.36;99997.55;101286;1315;109695;-77
2021/12/31 08:19:28;;;;;;;0.40;0.20;;;;;;;11.40;76.40;99996.50;101172;1316;138385;-78
2021/12/31 08:21:56;;;;;;;0.40;0.20;;;;;;;11.43;76.07;99994.98;101306;1315;94298;-77
2021/12/31 08:24:23;;;;;;;0.40;0.30;;;;;;;11.37;75.96;99996.58;101186;1315;138542;-77
2021/12/31 08:26:52;;;;;;;0.40;0.20;;;;;;;11.36;76.29;99990.58;101326;1315;108859;-76
2021/12/31 08:29:20;;;;;;;0.40;0.20;;;;;;;11.37;76.15;99987.15;101314;1315;107194;-75
2021/12/31 08:31:47;;;;;;;0.40;0.20;;;;;;;11.39;76.07;99992.25;101334;1310;139196;-78
2021/12/31 08:34:16;;;;;;;0.40;0.30;;;;;;;11.34;76.46;99992.98;101346;1312;94341;-77
2021/12/31 08:36:43;;;;;;;0.40;0.30;;;;;;;11.33;76.38;99997.63;101199;1312;141848;-76
2021/12/31 08:39:11;;;;;;;0.40;0.30;;;;;;;11.34;76.41;99986.39;101319;1312;108375;-77
2021/12/31 08:41:40;;;;;;;0.40;0.30;;;;;;;11.36;76.34;99988.28;101420;1312;94690;-78
2021/12/31 08:44:16;;;;;;;0.40;0.30;;;;;;;11.41;76.37;99988.09;101156;1310;139519;-77
2021/12/31 08:46:45;;;;;;;0.40;0.30;;;;;;;11.43;76.50;99984.48;101380;1312;107134;-78
2021/12/31 08:49:14;;;;;;;0.40;0.30;;;;;;;11.43;76.57;99981.27;101249;1312;139462;-77
2021/12/31 08:51:42;;;;;;;0.40;0.20;;;;;;;11.40;76.46;99980.11;101265;1315;94713;-77
2021/12/31 08:54:09;;;;;;;0.40;0.30;;;;;;;11.41;76.68;99981.34;101400;1312;139975;-77
2021/12/31 08:56:38;;;;;;;0.40;0.30;;;;;;;11.43;76.84;99978.24;101554;1315;109514;-77
2021/12/31 08:59:05;;;;;;;0.40;0.30;;;;;;;11.55;76.85;99976.92;101190;1314;109050;-77
2021/12/31 09:01:33;;;;;;;0.40;0.30;;;;;;;11.58;76.39;99978.94;101136;1316;140040;-77
2021/12/31 09:04:01;;;;;;;0.40;0.30;;;;;;;11.53;76.62;99979.84;101334;1315;95460;-77
2021/12/31 09:06:29;;;;;;;0.40;0.30;;;;;;;11.57;76.83;99978.25;101191;1315;139576;-77
2021/12/31 09:08:57;;;;;;;0.40;0.30;;;;;;;11.63;76.61;99979.85;101343;1310;109187;-76
2021/12/31 09:11:24;;;;;;;0.40;0.30;;;;;;;11.68;76.60;99977.68;101243;1315;94258;-76
2021/12/31 09:13:55;;;;;;;0.40;0.20;;;;;;;11.74;76.29;99978.72;100939;1318;140035;-76
2021/12/31 09:16:23;;;;;;;0.40;0.30;;;;;;;11.74;76.38;99978.17;101346;1315;110030;-76
2021/12/31 09:18:51;;;;;;;0.40;0.20;;;;;;;11.74;76.44;99979.23;101148;1312;139593;-76
2021/12/31 09:21:21;;;;;;;0.40;0.20;;;;;;;11.73;76.33;99974.64;101304;1308;94276;-76
2021/12/31 09:23:49;;;;;;;0.40;0.20;;;;;;;11.70;76.60;99974.20;101207;1312;94538;-76
2021/12/31 09:26:18;;;;;;;0.40;0.30;;;;;;;11.69;76.49;99973.02;100973;1312;139131;-76
2021/12/31 09:28:45;;;;;;;0.40;0.20;;;;;;;11.66;76.75;99971.36;100840;1315;108701;-76
2021/12/31 09:31:13;;;;;;;0.40;0.20;;;;;;;11.65;76.88;99969.26;101019;1316;141194;-75
2021/12/31 09:33:41;;;;;;;0.40;0.30;;;;;;;11.62;77.05;99969.36;101207;1312;94427;-78
2021/12/31 09:36:11;;;;;;;0.40;0.30;;;;;;;11.60;77.34;99969.95;101136;1315;137340;-78
2021/12/31 09:38:40;;;;;;;0.40;0.20;;;;;;;11.57;77.16;99972.75;101243;1313;107997;-77
2021/12/31 09:41:07;;;;;;;0.40;0.30;;;;;;;11.55;77.47;99973.36;101357;1312;94748;-77
2021/12/31 09:43:38;;;;;;;0.40;0.30;;;;;;;11.59;77.41;99969.66;101152;1312;140185;-75
2021/12/31 09:46:06;;;;;;;0.40;0.30;;;;;;;11.62;77.46;99970.09;101257;1312;108716;-79
2021/12/31 09:48:34;;;;;;;0.40;0.30;;;;;;;11.64;77.20;99970.19;101337;1313;139628;-78
2021/12/31 09:51:06;;;;;;;0.40;0.30;;;;;;;11.63;77.38;99963.64;101311;1312;94245;-77
2021/12/31 09:53:34;;;;;;;0.40;0.20;;;;;;;11.63;77.60;99969.52;101302;1312;94273;-77
2021/12/31 09:56:02;;;;;;;0.40;0.30;;;;;;;11.56;77.87;99964.45;100981;1319;139764;-77
2021/12/31 09:58:30;;;;;;;0.40;0.30;;;;;;;11.58;77.75;99965.08;101347;1320;109098;-78
2021/12/31 10:01:01;;;;;;;0.40;0.30;;;;;;;11.67;77.65;99962.95;101261;1312;139413;-77
2021/12/31 10:03:32;;;;;;;0.40;0.30;;;;;;;11.71;77.60;99960.14;101312;1312;95002;-77
2021/12/31 10:06:09;;;;;;;0.40;0.30;;;;;;;11.71;77.52;99958.70;101052;1313;138385;-77
2021/12/31 10:08:42;;;;;;;0.40;0.30;;;;;;;11.75;77.43;99957.86;101162;1319;108529;-77
2021/12/31 10:11:12;;;;;;;0.40;0.30;;;;;;;11.77;77.36;99949.59;101369;1312;94176;-77
2021/12/31 10:13:43;;;;;;;0.40;0.30;;;;;;;11.79;77.39;99953.24;101120;1312;140220;-77
2021/12/31 10:16:23;;;;;;;0.40;0.30;;;;;;;11.82;77.30;99952.27;101267;1312;110082;-78
2021/12/31 10:19:11;;;;;;;0.40;0.30;;;;;;;11.83;77.28;99947.20;101177;1313;140426;-77
2021/12/31 10:21:43;;;;;;;0.40;0.30;;;;;;;11.83;77.33;99947.03;101327;1314;94854;-77
2021/12/31 10:24:26;;;;;;;0.40;0.20;;;;;;;11.84;77.31;99942.77;101260;1313;141862;-77
2021/12/31 10:27:02;;;;;;;0.40;0.30;;;;;;;11.84;77.39;99944.52;101426;1315;109481;-77
2021/12/31 10:29:31;;;;;;;0.40;0.30;;;;;;;11.85;77.46;99940.92;101432;1313;108210;-78
2021/12/31 10:31:59;;;;;;;0.40;0.30;;;;;;;11.88;77.59;99937.24;101258;1313;138474;-77
2021/12/31 10:34:39;;;;;;;0.40;0.30;;;;;;;11.91;77.39;99936.59;101351;1312;94830;-77
2021/12/31 10:37:15;;;;;;;0.40;0.20;;;;;;;11.95;77.44;99935.42;101242;1312;140134;-78
2021/12/31 10:39:44;;;;;;;0.40;0.20;;;;;;;12.02;77.31;99939.40;101689;1309;107939;-78
2021/12/31 10:42:14;;;;;;;0.40;0.20;;;;;;;12.06;77.14;99934.62;101436;1313;139628;-78
2021/12/31 10:44:49;;;;;;;0.40;0.30;;;;;;;12.06;76.97;99936.73;101554;1316;94672;-78
2021/12/31 10:47:21;;;;;;;0.40;0.20;;;;;;;12.08;77.15;99934.18;101340;1315;109328;-77
2021/12/31 10:50:01;;;;;;;0.40;0.20;;;;;;;12.01;77.23;99935.15;101255;1319;139485;-76
2021/12/31 10:52:42;;;;;;;0.40;0.30;;;;;;;12.01;77.35;99931.42;101302;1315;94735;-77
2021/12/31 10:55:22;;;;;;;0.40;0.30;;;;;;;12.04;77.31;99931.12;101380;1309;140272;-77
2021/12/31 10:57:52;;;;;;;0.40;0.20;;;;;;;12.07;77.28;99934.25;101342;1316;107796;-77
2021/12/31 11:00:22;;;;;;;0.40;0.20;;;;;;;12.07;77.39;99929.94;101128;1315;140322;-77
2021/12/31 11:02:49;;;;;;;0.40;0.20;;;;;;;12.06;77.29;99930.71;101433;1313;94308;-76
2021/12/31 11:05:21;;;;;;;0.40;0.20;;;;;;;12.07;77.49;99930.69;101541;1315;94084;-77
2021/12/31 11:07:50;;;;;;;0.40;0.20;;;;;;;12.10;77.62;99928.42;101226;1316;138910;-77
2021/12/31 11:10:38;;;;;;;0.40;0.20;;;;;;;12.16;77.51;99923.52;101412;1315;108885;-78
2021/12/31 11:13:19;;;;;;;0.40;0.20;;;;;;;12.26;77.53;99920.98;101318;1316;140170;-76
2021/12/31 11:15:50;;;;;;;0.40;0.20;;;;;;;12.41;77.04;99923.23;101478;1312;94281;-79
2021/12/31 11:18:23;;;;;;;0.40;0.20;;;;;;;12.44;76.59;99916.16;101327;1313;140078;-79
2021/12/31 11:20:57;;;;;;;0.40;0.20;;;;;;;12.40;76.74;99915.08;101547;1316;108149;-77
2021/12/31 11:23:27;;;;;;;0.40;0.20;;;;;;;12.38;76.58;99912.83;101502;1313;94273;-76
2021/12/31 11:26:28;;;;;;;0.40;0.20;;;;;;;12.34;76.87;99911.42;101292;1319;140011;-77
2021/12/31 11:29:14;;;;;;;0.40;0.20;;;;;;;12.31;76.93;99904.80;101432;1315;110054;-77
2021/12/31 11:31:43;;;;;;;0.40;0.20;;;;;;;12.30;77.14;99904.81;101298;1312;142052;-77